Bruner, MO (65620)

2:43 AM CST on November 28, 2014 (GMT -0600)
Rogersville | Change Station
CLOSE
Current Station
Personal Weather Station
Location: Rogersville, MO
Elevation: 1453 ft
Nearby Weather Stations

Elev 1453 ft 37.09 °N, 93.10 °W | Updated 2 minutes ago

Clear
Clear
30.9 °F
Feels Like 31 °F
N
2.0
Wind Variable Wind from ESE
Gusts 3.0 mph

Today
High -- | Low -- °F
--% Chance of Precip.
Yesterday
High -- | Low -- °F
Precip. -- in
7:03 AM 4:55 PM
Waxing Crescent, 38% visible
Pressure 30.29 in
Visibility 10.0 miles
Clouds Clear
Windchill 31 °F
Dew Point 25 °F
Humidity 78%
Rainfall 0.00 in
Snow Depth Not available.
UV 0 out of 12
Pollen .90 out of 12
Air Quality Not available.
Flu Activity Not available.
METAR KSGF 280752Z 17012KT 10SM CLR 01/M05 A3027 RMK AO2 SLP257 T00061050

More Conditions Fewer Conditions

Pressure 30.29 in
Visibility 10.0 miles
Clouds Clear
Windchill 31 °F
Dew Point 25 °F
Humidity 78%
Rainfall 0.00 in
Snow Depth Not available.
UV 0 out of 12
Pollen .90 out of 12
Air Quality Not available.
Flu Activity Not available.
METAR KSGF 280752Z 17012KT 10SM CLR 01/M05 A3027 RMK AO2 SLP257 T00061050

More Conditions Fewer Conditions

10-Day Weather Forecast

Almanac

Astronomy

Nov. 28, 2014 Rise Set
Actual Time
Civil Twilight
Nautical Twilight
Astronomical Twilight
Moon
Length of Visible Light
Length of Day
Tomorrow will be .
, % of the Moon is Illuminated

Today's Extremes

State Highs State Lows

Community

WunderPhotos

Upload Photos

1,774,190 photos uploaded!

WunderBlogs® & News

Nearby

Air Quality

  Air Quality AQ Index Pollutant
Not available.

Snow Depth

Station Depth Elevation

Earthquake Activity

City Distance Mag. Time & Date
Minimum magnitude displayed is 2.5.

Coastal Water Temperatures

Place Temperature

Nearby Weather Stations